Flight Track Log - Related Links

Times and Time Zones

All times are in EDT time to prevent confusion due to time zone crossing. See the SKW6266 flight status page for this flight to view local times or setup timezone preferences in your user account.

Time Position Orientation Groundspeed Altitude Reporting Facility
EDT Latitude Longitude Course Direction KTS MPH feet Rate Location/Type
Sat 05:09:31 PM 42.0000 -87.9500 346° North 164 189 1,500  Level Chicago TRACON
Sat 05:11:05 PM 42.0767 -87.9275 12° North 221 254 4,200 1,858 Climbing Chicago Center
Sat 05:12:00 PM 42.3219 -88.0096 350° North  Level FlightAware Approximate
Sat 05:12:06 PM 42.1514 -87.9047 13° North 275 316 6,300  Level Chicago Center
Sat 05:13:00 PM 42.4389 -88.0544 352° North  Level FlightAware Approximate
Sat 05:13:09 PM 42.2178 -87.8503 31° Northeast 282 325 9,400  Level Chicago Center
Sat 05:14:00 PM 42.5551 -88.0961 346° North  Level FlightAware Approximate
Sat 05:14:10 PM 42.3072 -87.7994 23° Northeast 307 353 12,500  Level Chicago Center
Sat 05:15:12 PM 42.3925 -87.7917 North 332 382 14,100 1,854 Climbing Chicago Center
Sat 05:16:13 PM 42.4842 -87.8356 341° North 358 412 16,300 1,951 Climbing Chicago Center
Sat 05:17:15 PM 42.5939 -87.9117 333° Northwest 377 434 18,100 1,742 Climbing Chicago Center
Sat 05:18:17 PM 42.6903 -87.9808 332° Northwest 389 448 19,900 1,756 Climbing Chicago Center
Sat 05:19:18 PM 42.7897 -88.0497 333° Northwest 397 457 21,700 1,659 Climbing Chicago Center
Sat 05:20:20 PM 42.8889 -88.1208 332° Northwest 400 460 23,300 1,463 Climbing Chicago Center
Sat 05:21:21 PM 42.9883 -88.1917 332° Northwest 401 461 24,700 1,171 Climbing Chicago Center
Sat 05:22:23 PM 43.0883 -88.2639 332° Northwest 405 466 25,700 871 Climbing Chicago Center
Sat 05:23:25 PM 43.1494 -88.3958 302° West 416 479 26,500 829 Climbing Chicago Center
Sat 05:24:26 PM 43.1939 -88.5461 292° West 418 481 27,400 871 Climbing Chicago Center
Sat 05:25:29 PM 43.2400 -88.7003 292° West 428 493 28,300 871 Climbing Chicago Center
Sat 05:26:30 PM 43.2933 -88.8817 292° West 435 501 29,200 738 Climbing Chicago Center
Sat 05:27:31 PM 43.3389 -89.0372 292° West 436 502 29,800 537 Climbing Chicago Center
Sat 05:28:33 PM 43.3853 -89.1950 292° West 442 509 30,300 537 Climbing Chicago Center
Sat 05:29:34 PM 43.4325 -89.3544 292° West 448 516 30,900 585 Climbing Chicago Center
Sat 05:30:36 PM 43.4792 -89.5153 292° West 452 520 31,500 532 Climbing Chicago Center
Sat 05:31:38 PM 43.5233 -89.6764 291° West 449 517 32,000 244 Climbing Chicago Center
Sat 05:32:39 PM 43.5669 -89.8411 290° West 456 525 32,000  Level Chicago Center
Sat 05:33:17 PM 43.5925 -89.9514 288° West 454 522 32,000  Level Minneapolis Center
Sat 05:34:19 PM 43.6292 -90.1133 287° West 444 511 32,000  Level Minneapolis Center
Sat 05:35:20 PM 43.6614 -90.2708 286° West 437 503 32,000  Level Minneapolis Center
Sat 05:36:21 PM 43.6978 -90.4442 286° West 432 497 32,000  Level Minneapolis Center
Sat 05:37:23 PM 43.7333 -90.6128 286° West 425 489 32,000  Level Minneapolis Center
Sat 05:38:24 PM 43.7672 -90.7667 287° West 424 488 32,000  Level Minneapolis Center
Sat 05:39:25 PM 43.7992 -90.9217 286° West 423 487 32,000  Level Minneapolis Center
Sat 05:40:27 PM 43.8319 -91.0753 287° West 422 486 32,000  Level Minneapolis Center
Sat 05:41:28 PM 43.8653 -91.2283 287° West 420 483 32,000  Level Minneapolis Center
Sat 05:42:29 PM 43.9328 -91.3556 306° West 414 476 32,000  Level Minneapolis Center
Sat 05:43:30 PM 44.0075 -91.4811 310° West 423 487 32,000  Level Minneapolis Center
Sat 05:44:32 PM 44.0950 -91.6281 310° West 426 490 32,000  Level Minneapolis Center
Sat 05:45:33 PM 44.1706 -91.7564 309° West 430 495 32,000  Level Minneapolis Center
Sat 05:46:34 PM 44.2475 -91.8856 310° West 432 497 32,000  Level Minneapolis Center
Sat 05:47:36 PM 44.3247 -92.0144 310° West 435 501 32,000  Level Minneapolis Center
Sat 05:48:37 PM 44.3967 -92.1469 307° West 431 496 32,000  Level Minneapolis Center
Sat 05:49:38 PM 44.4767 -92.2772 311° West 440 506 32,000  Level Minneapolis Center
Sat 05:50:40 PM 44.5661 -92.4347 309° West 433 498 32,000  Level Minneapolis Center
Sat 05:51:41 PM 44.6428 -92.5658 309° West 436 502 32,000  Level Minneapolis Center
Sat 05:52:42 PM 44.7175 -92.6942 309° West 431 496 32,000  Level Minneapolis Center
Sat 05:53:44 PM 44.7897 -92.8206 309° West 423 487 32,000  Level Minneapolis Center
Sat 05:54:45 PM 44.8617 -92.9442 309° West 418 481 32,000  Level Minneapolis Center
Sat 05:55:46 PM 44.9319 -93.0681 309° West 414 476 32,000  Level Minneapolis Center
Sat 05:56:48 PM 45.0178 -93.2206 309° West 419 482 32,000  Level Minneapolis Center
Sat 05:57:49 PM 45.0897 -93.3500 308° West 423 487 32,000  Level Minneapolis Center
Sat 05:58:50 PM 45.1631 -93.4811 308° West 426 490 32,000  Level Minneapolis Center
Sat 05:59:52 PM 45.2367 -93.6122 309° West 429 494 32,000  Level Minneapolis Center
Sat 06:00:53 PM 45.3100 -93.7439 308° West 428 493 32,000  Level Minneapolis Center
Sat 06:01:54 PM 45.3814 -93.8758 308° West 425 489 32,000  Level Minneapolis Center
Sat 06:02:56 PM 45.4536 -94.0056 308° West 423 487 32,000  Level Minneapolis Center
Sat 06:03:57 PM 45.5397 -94.1633 308° West 422 486 32,000  Level Minneapolis Center
Sat 06:04:59 PM 45.6094 -94.2928 308° West 417 480 32,000  Level Minneapolis Center
Sat 06:06:00 PM 45.6808 -94.4228 308° West 418 481 32,000  Level Minneapolis Center
Sat 06:07:01 PM 45.7508 -94.5533 308° West 415 478 32,000  Level Minneapolis Center
Sat 06:08:03 PM 45.8206 -94.6825 308° West 413 475 32,000  Level Minneapolis Center
Sat 06:09:04 PM 45.8892 -94.8133 307° West 413 475 32,000 -98 Level Minneapolis Center
Sat 06:10:05 PM 45.9592 -94.9425 308° West 411 473 31,800 -1,659 Descending Minneapolis Center
Sat 06:11:07 PM 46.0331 -95.0839 307° West 417 480 28,600 -3,024 Descending Minneapolis Center
Sat 06:12:08 PM 46.1031 -95.2167 307° West 418 481 25,600 -3,220 Descending Minneapolis Center
Sat 06:13:10 PM 46.1844 -95.3722 307° West 410 472 22,000 -3,171 Descending Minneapolis Center
Sat 06:14:11 PM 46.2511 -95.4972 308° West 400 460 19,100 -2,585 Descending Minneapolis Center
Sat 06:15:13 PM 46.3131 -95.6169 307° West 382 440 16,700 -2,439 Descending Minneapolis Center
Sat 06:16:14 PM 46.3714 -95.7322 306° West 364 419 14,100 -2,557 Descending Minneapolis Center
Sat 06:17:15 PM 46.4289 -95.8436 307° West 345 397 11,500 -1,951 Descending Minneapolis Center
Sat 06:18:17 PM 46.4786 -95.9556 303° West 315 362 10,100 -1,073 Descending Minneapolis Center
Sat 06:19:18 PM 46.5192 -96.0547 301° West 279 321 9,300 -683 Descending Minneapolis Center
Sat 06:20:20 PM 46.5589 -96.1561 300° West 278 320 8,700 -537 Descending Minneapolis Center
Sat 06:21:21 PM 46.5944 -96.2475 300° West 270 311 8,200 -634 Descending Minneapolis Center
Sat 06:22:23 PM 46.6289 -96.3361 300° West 239 275 7,400 -927 Descending Minneapolis Center
Sat 06:23:24 PM 46.6625 -96.4222 300° West 235 270 6,300 -1,024 Descending Minneapolis Center
Sat 06:24:26 PM 46.6956 -96.5081 299° West 234 269 5,300 -976 Descending Minneapolis Center
Sat 06:25:27 PM 46.7253 -96.5839 300° West 227 261 4,300 -976 Descending Minneapolis Center
Sat 06:26:29 PM 46.7561 -96.6628 300° West 217 250 3,300 -732 Descending Minneapolis Center
Sat 06:27:30 PM 46.7856 -96.7372 300° West 205 236 2,800 -439 Descending Minneapolis Center
Sat 06:28:32 PM 46.8142 -96.8031 302° West 198 228 2,400 -341 Descending Minneapolis Center
Sat 06:29:33 PM 46.8583 -96.8169 348° North 158 182 2,100 -537 Descending Minneapolis Center
Sat 06:30:35 PM 46.8947 -96.8164 North 134 154 1,300 -774 Descending Minneapolis Center

Login

Don't have an account? Register now (free) for customized features, flight alerts, and more!